Time;durP1;ratioP1;P1;durP2;ratioP2;P2;SDS_P1;SDS_P2;PMS_P1;PMS_P2;Temp;Humidity;BMP_temperature;BMP_pressure;BME280_temperature;BME280_humidity;BME280_pressure;Samples;Min_cycle;Max_cycle;Signal;HPM_P1;HPM_P2
2021/09/16 00:00:05;;;;;;;7.43;3.78;;;;;;;18.92;100.00;100390.28;5010110;28;20071;-67
2021/09/16 00:02:37;;;;;;;9.68;3.30;;;;;;;18.92;100.00;100386.78;5008916;28;20045;-67
2021/09/16 00:05:03;;;;;;;6.82;3.97;;;;;;;18.93;100.00;100389.06;5010704;28;20156;-67
2021/09/16 00:07:28;;;;;;;6.47;3.40;;;;;;;18.93;100.00;100383.63;5009219;28;20103;-66
2021/09/16 00:09:54;;;;;;;7.22;3.35;;;;;;;18.86;100.00;100394.69;5009405;28;20117;-66
2021/09/16 00:12:19;;;;;;;5.35;2.90;;;;;;;18.85;100.00;100397.81;5009655;28;20037;-67
2021/09/16 00:14:45;;;;;;;4.50;2.70;;;;;;;18.85;100.00;100395.84;5010196;28;20473;-66
2021/09/16 00:17:10;;;;;;;5.93;2.75;;;;;;;18.84;100.00;100397.03;5010005;28;20029;-67
2021/09/16 00:19:36;;;;;;;9.23;2.83;;;;;;;18.76;100.00;100392.13;5005054;28;20504;-67
2021/09/16 00:22:01;;;;;;;6.63;2.30;;;;;;;18.74;100.00;100398.00;4988975;28;20554;-67
2021/09/16 00:24:27;;;;;;;5.32;2.88;;;;;;;18.78;100.00;100400.66;5005764;28;20037;-67
2021/09/16 00:26:52;;;;;;;7.30;2.75;;;;;;;18.80;100.00;100399.06;5001485;28;20042;-67
2021/09/16 00:29:18;;;;;;;7.60;2.72;;;;;;;18.75;100.00;100396.03;5007495;28;20121;-66
2021/09/16 00:31:43;;;;;;;5.57;2.72;;;;;;;18.71;100.00;100400.78;5008636;28;20033;-66
2021/09/16 00:34:09;;;;;;;5.25;2.60;;;;;;;18.74;100.00;100391.75;5009475;28;20484;-67
2021/09/16 00:36:35;;;;;;;8.93;2.75;;;;;;;18.77;100.00;100397.19;5006071;28;20037;-67
2021/09/16 00:39:01;;;;;;;5.45;3.17;;;;;;;18.71;100.00;100401.56;5009455;28;20091;-67
2021/09/16 00:41:28;;;;;;;4.55;2.60;;;;;;;18.75;100.00;100399.56;4991478;28;20037;-66
2021/09/16 00:43:58;;;;;;;3.85;2.60;;;;;;;18.65;100.00;100411.41;5009204;28;20034;-67
2021/09/16 00:46:23;;;;;;;4.75;2.80;;;;;;;18.63;100.00;100408.31;5009541;28;20032;-66
2021/09/16 00:48:49;;;;;;;8.27;2.95;;;;;;;18.62;100.00;100406.03;5009417;28;20037;-67
2021/09/16 00:51:14;;;;;;;4.10;2.47;;;;;;;18.67;100.00;100409.03;5009747;28;20073;-66
2021/09/16 00:53:40;;;;;;;4.78;3.00;;;;;;;18.64;100.00;100409.84;5009228;28;20054;-66
2021/09/16 00:56:08;;;;;;;9.70;2.92;;;;;;;18.62;100.00;100412.22;5009505;28;20036;-66
2021/09/16 00:58:38;;;;;;;6.97;3.28;;;;;;;18.65;100.00;100414.16;5009456;28;20450;-67
2021/09/16 01:01:04;;;;;;;8.20;2.88;;;;;;;18.58;100.00;100414.25;5001624;28;20035;-67
2021/09/16 01:03:30;;;;;;;6.20;2.38;;;;;;;18.52;100.00;100410.47;5006443;28;20041;-67
2021/09/16 01:05:55;;;;;;;4.68;2.25;;;;;;;18.57;100.00;100409.97;4990895;28;20041;-68
2021/09/16 01:08:22;;;;;;;6.78;3.08;;;;;;;18.52;100.00;100402.28;5010040;28;20080;-67
2021/09/16 01:10:48;;;;;;;6.63;2.63;;;;;;;18.61;100.00;100405.25;5004119;28;22454;-66
2021/09/16 01:13:15;;;;;;;3.95;2.33;;;;;;;18.64;100.00;100409.84;5009340;28;20498;-67
2021/09/16 01:15:41;;;;;;;5.13;2.55;;;;;;;18.59;100.00;100410.34;4997864;28;20084;-67
2021/09/16 01:18:06;;;;;;;3.72;2.33;;;;;;;18.55;100.00;100401.44;4995152;28;20033;-68
2021/09/16 01:20:31;;;;;;;6.53;2.50;;;;;;;18.54;100.00;100410.03;4992303;28;20096;-66
2021/09/16 01:22:57;;;;;;;4.32;2.60;;;;;;;18.54;100.00;100415.50;5012413;28;20037;-66
2021/09/16 01:25:25;;;;;;;5.38;2.53;;;;;;;18.52;100.00;100412.41;5012304;28;20045;-66
2021/09/16 01:27:53;;;;;;;4.15;2.47;;;;;;;18.52;100.00;100404.22;5011825;28;20038;-66
2021/09/16 01:30:18;;;;;;;5.93;2.58;;;;;;;18.49;100.00;100419.47;5011729;28;20025;-67
2021/09/16 01:32:43;;;;;;;6.70;2.85;;;;;;;18.50;100.00;100415.56;5011313;28;20041;-66
2021/09/16 01:35:09;;;;;;;6.00;2.15;;;;;;;18.48;100.00;100411.69;5013899;28;20033;-66
2021/09/16 01:37:35;;;;;;;6.47;2.55;;;;;;;18.41;100.00;100417.22;5011357;28;20050;-67
2021/09/16 01:40:00;;;;;;;4.80;2.60;;;;;;;18.40;100.00;100412.97;5010421;28;20052;-66
2021/09/16 01:42:26;;;;;;;5.20;2.40;;;;;;;18.48;100.00;100419.88;5001307;28;20057;-68
2021/09/16 01:44:54;;;;;;;4.15;2.47;;;;;;;18.45;100.00;100407.84;5011913;28;20069;-67
2021/09/16 01:47:19;;;;;;;6.78;2.80;;;;;;;18.48;100.00;100411.69;5013714;28;20065;-68
2021/09/16 01:49:45;;;;;;;3.28;2.45;;;;;;;18.47;100.00;100404.69;4993183;28;20122;-66
2021/09/16 01:52:10;;;;;;;3.42;2.25;;;;;;;18.42;100.00;100411.41;5012012;28;20105;-67
2021/09/16 01:54:36;;;;;;;4.72;2.47;;;;;;;18.40;100.00;100410.22;5009506;28;20025;-67
2021/09/16 01:57:01;;;;;;;3.67;2.42;;;;;;;18.41;100.00;100418.00;5013436;28;20054;-67
2021/09/16 01:59:27;;;;;;;6.07;2.45;;;;;;;18.47;100.00;100410.91;5012969;28;20032;-66
2021/09/16 02:01:52;;;;;;;6.43;2.47;;;;;;;18.40;100.00;100418.41;5012401;28;20509;-66
2021/09/16 02:04:17;;;;;;;3.63;2.10;;;;;;;18.38;100.00;100415.31;5011742;28;20041;-67
2021/09/16 02:06:43;;;;;;;3.38;2.22;;;;;;;18.35;100.00;100419.66;5011174;28;20041;-67
2021/09/16 02:09:08;;;;;;;4.55;2.30;;;;;;;18.33;100.00;100415.81;5012459;28;20030;-66
2021/09/16 02:11:34;;;;;;;4.28;2.30;;;;;;;18.38;100.00;100416.09;5012972;28;20438;-67
2021/09/16 02:13:59;;;;;;;4.80;2.67;;;;;;;18.25;100.00;100409.69;5011845;28;20116;-67
2021/09/16 02:16:25;;;;;;;2.15;1.70;;;;;;;18.29;100.00;100420.53;5013106;28;20033;-68
2021/09/16 02:18:50;;;;;;;4.43;2.03;;;;;;;18.31;100.00;100412.72;5011873;28;20041;-67
2021/09/16 02:21:16;;;;;;;5.15;2.60;;;;;;;18.29;100.00;100415.09;5012199;28;20554;-66
2021/09/16 02:23:41;;;;;;;3.97;2.22;;;;;;;18.21;100.00;100414.41;5010568;28;20116;-67
2021/09/16 02:26:06;;;;;;;3.08;1.90;;;;;;;18.28;100.00;100424.44;5012732;28;20033;-68
2021/09/16 02:28:32;;;;;;;2.72;1.83;;;;;;;18.27;100.00;100426.41;5012314;28;20117;-67
2021/09/16 02:30:57;;;;;;;4.38;1.50;;;;;;;18.23;100.00;100433.88;5011922;28;20041;-67
2021/09/16 02:33:23;;;;;;;2.03;1.40;;;;;;;18.23;100.00;100430.38;5010654;28;20061;-67
2021/09/16 02:35:52;;;;;;;2.60;1.40;;;;;;;18.23;100.00;100439.31;5012007;28;20026;-67
2021/09/16 02:38:19;;;;;;;1.55;1.10;;;;;;;18.17;100.00;100432.00;5011575;28;20030;-67
2021/09/16 02:40:44;;;;;;;1.17;0.93;;;;;;;18.15;100.00;100432.41;5011966;28;20022;-67
2021/09/16 02:43:10;;;;;;;1.20;1.02;;;;;;;18.07;100.00;100435.66;5011073;28;20450;-68
2021/09/16 02:45:35;;;;;;;1.20;0.98;;;;;;;17.95;100.00;100440.47;5012379;28;20060;-66
2021/09/16 02:48:01;;;;;;;2.53;1.40;;;;;;;17.96;100.00;100442.00;5010115;28;20038;-67
2021/09/16 02:50:26;;;;;;;2.10;0.85;;;;;;;18.02;100.00;100437.66;5011144;28;20038;-67
2021/09/16 02:52:51;;;;;;;2.70;0.63;;;;;;;17.95;100.00;100437.75;5010507;28;20113;-67
2021/09/16 02:55:18;;;;;;;1.88;0.80;;;;;;;17.97;100.00;100438.13;5011841;28;20068;-67
2021/09/16 02:57:45;;;;;;;3.08;0.80;;;;;;;17.89;100.00;100447.56;5012193;28;20482;-67
2021/09/16 03:00:11;;;;;;;1.17;0.63;;;;;;;17.90;100.00;100451.06;5004727;28;20061;-67
2021/09/16 03:02:37;;;;;;;2.15;0.77;;;;;;;17.87;100.00;100451.88;5010001;28;20063;-68
2021/09/16 03:05:03;;;;;;;1.83;0.80;;;;;;;17.84;100.00;100448.03;5011970;28;20040;-67
2021/09/16 03:07:28;;;;;;;2.63;0.68;;;;;;;17.89;100.00;100452.22;5011105;28;20045;-66
2021/09/16 03:09:54;;;;;;;2.05;0.63;;;;;;;17.86;100.00;100442.94;5007575;28;20112;-67
2021/09/16 03:12:19;;;;;;;2.03;0.50;;;;;;;17.85;100.00;100452.28;5011170;28;20052;-68
2021/09/16 03:14:45;;;;;;;2.67;0.90;;;;;;;17.89;100.00;100450.28;5011474;28;20038;-67
2021/09/16 03:17:10;;;;;;;0.85;0.60;;;;;;;17.84;100.00;100458.94;5008832;28;20788;-68
2021/09/16 03:19:36;;;;;;;1.10;0.63;;;;;;;17.86;100.00;100453.06;5008821;28;20073;-67
2021/09/16 03:22:01;;;;;;;1.27;0.90;;;;;;;17.85;100.00;100463.19;5010360;28;20038;-67
2021/09/16 03:24:27;;;;;;;0.68;0.60;;;;;;;17.80;100.00;100452.75;5011584;28;20037;-67
2021/09/16 03:26:53;;;;;;;0.70;0.40;;;;;;;17.82;100.00;100460.50;5008666;28;20034;-67
2021/09/16 03:29:18;;;;;;;0.50;0.43;;;;;;;17.75;100.00;100455.91;5011187;28;20100;-67
2021/09/16 03:31:44;;;;;;;0.45;0.40;;;;;;;17.74;100.00;100465.28;5008583;28;20486;-67
2021/09/16 03:34:09;;;;;;;4.18;0.60;;;;;;;17.78;100.00;100460.56;4998989;28;20042;-67
2021/09/16 03:36:35;;;;;;;2.75;0.63;;;;;;;17.74;100.00;100457.09;5009084;28;20029;-67
2021/09/16 03:39:00;;;;;;;2.13;1.02;;;;;;;17.72;100.00;100458.69;5008920;28;20076;-67
2021/09/16 03:41:26;;;;;;;2.00;0.57;;;;;;;17.74;100.00;100459.03;5009195;28;20033;-67
2021/09/16 03:43:52;;;;;;;0.32;0.32;;;;;;;17.73;100.00;100452.81;5008354;28;20087;-67
2021/09/16 03:46:17;;;;;;;1.95;0.70;;;;;;;17.69;100.00;100457.53;5007685;28;20032;-67
2021/09/16 03:48:43;;;;;;;0.70;0.45;;;;;;;17.74;100.00;100454.38;5010572;28;20041;-68
2021/09/16 03:51:09;;;;;;;1.13;0.60;;;;;;;17.62;100.00;100456.84;5007985;28;20034;-67
2021/09/16 03:53:34;;;;;;;0.77;0.40;;;;;;;17.73;100.00;100455.53;5009377;28;20084;-67
2021/09/16 03:56:00;;;;;;;1.77;0.70;;;;;;;17.66;100.00;100452.91;5010011;28;20026;-67
2021/09/16 03:58:26;;;;;;;2.55;0.70;;;;;;;17.65;100.00;100456.78;5010740;28;20486;-68
2021/09/16 04:00:52;;;;;;;2.15;0.30;;;;;;;17.64;100.00;100462.66;5004239;28;20027;-68
2021/09/16 04:03:17;;;;;;;1.30;0.50;;;;;;;17.65;100.00;100464.97;5009397;28;20042;-67
2021/09/16 04:05:43;;;;;;;0.57;0.40;;;;;;;17.62;100.00;100457.63;5010766;28;20052;-67
2021/09/16 04:08:08;;;;;;;0.80;0.40;;;;;;;17.59;100.00;100466.63;4984482;28;20451;-67
2021/09/16 04:10:34;;;;;;;1.23;0.73;;;;;;;17.58;100.00;100473.22;5009829;28;20030;-67
2021/09/16 04:13:00;;;;;;;2.10;0.30;;;;;;;17.55;100.00;100465.09;5009394;28;20267;-67
2021/09/16 04:15:26;;;;;;;0.47;0.35;;;;;;;17.57;100.00;100474.41;5007458;28;20042;-67
2021/09/16 04:17:51;;;;;;;1.70;0.50;;;;;;;17.53;100.00;100462.78;5002310;28;20129;-68
2021/09/16 04:20:17;;;;;;;0.70;0.50;;;;;;;17.54;100.00;100466.28;5008761;28;20041;-66
2021/09/16 04:22:42;;;;;;;1.02;0.30;;;;;;;17.53;100.00;100467.47;5008776;28;20698;-68
2021/09/16 04:25:08;;;;;;;1.05;0.35;;;;;;;17.55;100.00;100476.00;5009341;28;20120;-67
2021/09/16 04:27:34;;;;;;;0.47;0.22;;;;;;;17.51;100.00;100472.53;5005620;28;20041;-67
2021/09/16 04:29:59;;;;;;;0.38;0.28;;;;;;;17.45;100.00;100468.69;5009873;28;20494;-67
2021/09/16 04:32:25;;;;;;;0.95;0.30;;;;;;;17.49;100.00;100472.94;5009928;28;20033;-69
2021/09/16 04:34:50;;;;;;;1.27;0.50;;;;;;;17.50;100.00;100471.75;5009720;28;20036;-67
2021/09/16 04:37:17;;;;;;;1.80;0.32;;;;;;;17.48;100.00;100471.38;5004641;28;20548;-68
2021/09/16 04:39:42;;;;;;;0.85;0.40;;;;;;;17.38;100.00;100476.94;5010051;28;20052;-67
2021/09/16 04:42:07;;;;;;;1.38;0.50;;;;;;;17.40;100.00;100485.47;5009221;28;20030;-67
2021/09/16 04:44:33;;;;;;;0.63;0.50;;;;;;;17.36;100.00;100485.50;5007483;28;20033;-66
2021/09/16 04:46:59;;;;;;;1.88;0.40;;;;;;;17.42;100.00;100483.13;5000262;28;20487;-67
2021/09/16 04:49:24;;;;;;;0.77;0.17;;;;;;;17.39;100.00;100490.13;5008480;28;20030;-67
2021/09/16 04:51:50;;;;;;;1.88;0.50;;;;;;;17.41;100.00;100493.22;5009724;28;20556;-66
2021/09/16 04:54:16;;;;;;;1.98;0.40;;;;;;;17.38;100.00;100496.75;5009106;28;20045;-67
2021/09/16 04:56:41;;;;;;;2.20;0.40;;;;;;;17.25;100.00;100484.06;4999493;28;20030;-67
2021/09/16 04:59:07;;;;;;;1.35;0.30;;;;;;;17.27;100.00;100473.53;5010928;28;20120;-67
2021/09/16 05:01:32;;;;;;;0.30;0.30;;;;;;;17.33;100.00;100480.06;5012774;28;20057;-67
2021/09/16 05:03:58;;;;;;;2.10;0.68;;;;;;;17.32;100.00;100479.31;5002361;28;20577;-67
2021/09/16 05:06:23;;;;;;;1.38;0.50;;;;;;;17.28;100.00;100472.38;5008931;28;20042;-67
2021/09/16 05:08:49;;;;;;;2.88;0.73;;;;;;;17.22;100.00;100474.75;4978999;28;20411;-68
2021/09/16 05:11:14;;;;;;;2.55;0.50;;;;;;;17.25;100.00;100479.38;5003447;28;20114;-66
2021/09/16 05:13:40;;;;;;;0.50;0.40;;;;;;;17.25;100.00;100481.34;5010987;28;20037;-66
2021/09/16 05:16:05;;;;;;;0.82;0.60;;;;;;;17.19;100.00;100474.78;5009759;28;20452;-68
2021/09/16 05:18:31;;;;;;;1.10;0.60;;;;;;;17.14;100.00;100474.06;5000025;28;20057;-67
2021/09/16 05:20:56;;;;;;;0.60;0.47;;;;;;;17.08;100.00;100480.31;4977427;28;20036;-67
2021/09/16 05:23:22;;;;;;;2.80;0.95;;;;;;;17.10;100.00;100488.84;4993785;28;20038;-68
2021/09/16 05:25:47;;;;;;;0.85;0.60;;;;;;;17.04;100.00;100487.75;4998245;28;20061;-67
2021/09/16 05:28:13;;;;;;;1.40;0.90;;;;;;;17.00;100.00;100484.28;4991723;28;20041;-66
2021/09/16 05:30:38;;;;;;;1.95;0.70;;;;;;;17.02;100.00;100481.94;5009070;28;20605;-66
2021/09/16 05:33:09;;;;;;;2.20;0.90;;;;;;;17.05;100.00;100489.31;5012948;28;20037;-67
2021/09/16 05:38:05;;;;;;;1.43;1.13;;;;;;;17.03;100.00;100489.69;4980354;28;20052;-69
2021/09/16 05:40:31;;;;;;;2.05;1.30;;;;;;;17.08;100.00;100488.50;4984509;28;20082;-69
2021/09/16 05:42:57;;;;;;;3.80;1.58;;;;;;;17.11;100.00;100480.28;4981315;28;20058;-69
2021/09/16 05:45:22;;;;;;;1.90;1.30;;;;;;;17.08;100.00;100480.31;4984974;28;20057;-69
2021/09/16 05:47:48;;;;;;;1.58;1.10;;;;;;;17.13;100.00;100475.22;4974213;28;20173;-69
2021/09/16 05:50:13;;;;;;;3.28;1.75;;;;;;;17.18;100.00;100482.19;4977563;28;20085;-69
2021/09/16 05:52:39;;;;;;;2.70;1.48;;;;;;;17.20;100.00;100479.81;4977527;28;20054;-69
2021/09/16 05:55:05;;;;;;;2.70;1.40;;;;;;;17.27;100.00;100485.19;4977893;28;20388;-69
2021/09/16 05:57:31;;;;;;;1.95;1.30;;;;;;;17.29;100.00;100474.69;4975245;28;20372;-69
2021/09/16 05:59:57;;;;;;;2.45;1.63;;;;;;;17.31;100.00;100485.94;4979283;28;20038;-69
2021/09/16 06:02:22;;;;;;;3.08;1.42;;;;;;;17.37;100.00;100494.44;4975253;28;20510;-69
2021/09/16 06:04:48;;;;;;;2.78;1.60;;;;;;;17.32;100.00;100501.09;4972755;28;20162;-69
2021/09/16 06:07:13;;;;;;;3.28;1.58;;;;;;;17.17;100.00;100490.75;4984397;28;20138;-69
2021/09/16 06:09:39;;;;;;;2.28;1.50;;;;;;;17.22;100.00;100496.53;4980562;28;20130;-69
2021/09/16 06:12:07;;;;;;;5.60;1.90;;;;;;;17.23;100.00;100489.91;4975047;28;20077;-69
2021/09/16 06:14:32;;;;;;;3.05;1.77;;;;;;;17.17;100.00;100479.88;4985100;28;20040;-69
2021/09/16 06:16:58;;;;;;;3.33;1.75;;;;;;;17.18;100.00;100490.34;4977913;28;20415;-69
2021/09/16 06:19:24;;;;;;;2.22;1.52;;;;;;;17.19;100.00;100488.41;4976889;28;20038;-69
2021/09/16 06:21:49;;;;;;;2.63;1.85;;;;;;;17.17;100.00;100502.41;4977569;28;20033;-69
2021/09/16 06:24:15;;;;;;;2.28;1.40;;;;;;;17.21;100.00;100494.22;4958972;28;20122;-69
2021/09/16 06:26:40;;;;;;;3.30;1.80;;;;;;;17.22;100.00;100496.53;4978539;28;20443;-69
2021/09/16 06:29:06;;;;;;;3.60;2.20;;;;;;;17.24;100.00;100498.84;4978008;28;20098;-70
2021/09/16 06:31:31;;;;;;;3.25;1.88;;;;;;;17.22;100.00;100504.69;4975746;28;20100;-69
2021/09/16 06:33:57;;;;;;;4.00;2.45;;;;;;;17.13;100.00;100505.16;4975041;28;20047;-69
2021/09/16 06:36:22;;;;;;;4.78;2.30;;;;;;;17.21;100.00;100505.84;4973876;28;20031;-69
2021/09/16 06:38:48;;;;;;;3.90;2.60;;;;;;;17.20;100.00;100504.31;4973281;28;20174;-69
2021/09/16 06:41:13;;;;;;;4.55;2.55;;;;;;;17.17;100.00;100494.22;4975501;28;20030;-69
2021/09/16 06:43:39;;;;;;;4.35;2.55;;;;;;;17.16;100.00;100503.59;4975548;28;20458;-69
2021/09/16 06:46:04;;;;;;;3.47;2.45;;;;;;;17.18;100.00;100501.22;4973810;28;20411;-69
2021/09/16 06:48:30;;;;;;;6.30;3.22;;;;;;;17.14;100.00;100506.72;4973157;28;20034;-69
2021/09/16 06:50:56;;;;;;;4.57;2.97;;;;;;;17.19;100.00;100507.47;4992153;28;20294;-69
2021/09/16 06:53:22;;;;;;;7.47;3.03;;;;;;;17.24;100.00;100505.06;4990157;28;20502;-69
2021/09/16 06:55:47;;;;;;;4.88;3.30;;;;;;;17.25;100.00;100497.69;4985356;28;20474;-69
2021/09/16 06:58:13;;;;;;;7.05;3.40;;;;;;;17.33;100.00;100508.09;4990419;28;20066;-70
2021/09/16 07:00:38;;;;;;;5.38;3.13;;;;;;;17.27;100.00;100511.63;4980396;28;20107;-69
2021/09/16 07:03:04;;;;;;;6.35;2.97;;;;;;;17.27;100.00;100517.88;4981390;28;20070;-69
2021/09/16 07:05:29;;;;;;;5.38;3.25;;;;;;;17.25;100.00;100512.03;4976708;28;20070;-69
2021/09/16 07:07:55;;;;;;;5.85;3.42;;;;;;;17.30;100.00;100517.06;4974264;28;20057;-69
2021/09/16 07:10:20;;;;;;;8.23;3.90;;;;;;;17.29;100.00;100507.34;4974762;28;20039;-69
2021/09/16 07:12:46;;;;;;;6.60;3.60;;;;;;;17.32;100.00;100511.22;4973256;28;20043;-69
2021/09/16 07:15:11;;;;;;;5.93;3.35;;;;;;;17.39;100.00;100522.81;4979290;28;20106;-69
2021/09/16 07:17:37;;;;;;;7.25;3.88;;;;;;;17.38;100.00;100509.59;4977878;28;20038;-69
2021/09/16 07:20:03;;;;;;;10.90;3.60;;;;;;;17.27;100.00;100520.59;4983294;28;20514;-69
2021/09/16 07:22:29;;;;;;;5.75;2.92;;;;;;;17.31;100.00;100521.31;4974296;28;20034;-69
2021/09/16 07:24:54;;;;;;;5.15;3.10;;;;;;;17.28;100.00;100518.63;4971598;28;20087;-69
2021/09/16 07:27:19;;;;;;;8.60;3.78;;;;;;;17.26;100.00;100526.44;4975140;28;20042;-69
2021/09/16 07:29:46;;;;;;;5.80;3.22;;;;;;;17.28;100.00;100527.59;4974968;28;20430;-69
2021/09/16 07:32:11;;;;;;;5.85;2.92;;;;;;;17.34;100.00;100530.66;4974200;28;20505;-69
2021/09/16 07:34:37;;;;;;;8.05;3.30;;;;;;;17.37;100.00;100538.00;4978960;28;20034;-69
2021/09/16 07:37:02;;;;;;;8.48;3.70;;;;;;;17.31;100.00;100532.22;4976843;28;20041;-68
2021/09/16 07:39:28;;;;;;;5.28;3.25;;;;;;;17.26;100.00;100535.38;4972637;28;20053;-67
2021/09/16 07:41:53;;;;;;;5.43;3.20;;;;;;;17.35;100.00;100541.13;4977332;28;20057;-68
2021/09/16 07:44:19;;;;;;;7.32;3.38;;;;;;;17.36;100.00;100539.19;4977703;28;20026;-67
2021/09/16 07:46:45;;;;;;;7.45;3.25;;;;;;;17.35;100.00;100545.78;4982414;28;20038;-67
2021/09/16 07:49:11;;;;;;;8.57;3.33;;;;;;;17.39;100.00;100533.69;4983412;28;20030;-69
2021/09/16 07:51:36;;;;;;;4.47;3.10;;;;;;;17.41;100.00;100533.28;4989130;28;20033;-69
2021/09/16 07:54:02;;;;;;;7.00;3.47;;;;;;;17.48;100.00;100539.47;4988843;28;20097;-69
2021/09/16 07:56:29;;;;;;;6.05;3.47;;;;;;;17.48;100.00;100547.63;4989045;28;20117;-69
2021/09/16 07:58:54;;;;;;;6.57;3.60;;;;;;;17.42;100.00;100543.78;4987257;28;20410;-69
2021/09/16 08:01:20;;;;;;;5.95;3.25;;;;;;;17.54;100.00;100543.31;4986297;28;20030;-69
2021/09/16 08:03:46;;;;;;;6.88;3.72;;;;;;;17.49;100.00;100543.75;4986733;28;20519;-69
2021/09/16 08:06:11;;;;;;;9.93;3.72;;;;;;;17.52;100.00;100542.16;4972468;28;20085;-69
2021/09/16 08:08:37;;;;;;;5.97;3.35;;;;;;;17.59;100.00;100542.88;4976886;28;20028;-70
2021/09/16 08:11:02;;;;;;;6.53;3.33;;;;;;;17.56;100.00;100546.41;4972395;28;20026;-69
2021/09/16 08:13:28;;;;;;;6.47;3.35;;;;;;;17.69;100.00;100541.22;4975802;28;20034;-70
2021/09/16 08:15:54;;;;;;;5.47;3.03;;;;;;;17.74;100.00;100548.94;4971527;28;20046;-69
2021/09/16 08:18:20;;;;;;;8.18;3.92;;;;;;;17.81;100.00;100548.84;4970499;28;20043;-69
2021/09/16 08:20:50;;;;;;;5.97;3.25;;;;;;;17.77;100.00;100556.28;4971283;28;20050;-68
2021/09/16 08:23:20;;;;;;;7.95;3.28;;;;;;;17.82;100.00;100553.91;4974710;28;20057;-68
2021/09/16 08:25:46;;;;;;;6.63;3.35;;;;;;;17.78;100.00;100555.91;4974221;28;20092;-70
2021/09/16 08:28:12;;;;;;;4.72;2.97;;;;;;;17.77;100.00;100553.56;4991096;28;20031;-67
2021/09/16 08:30:38;;;;;;;5.25;3.05;;;;;;;17.82;100.00;100556.66;4989306;28;20053;-67
2021/09/16 08:33:04;;;;;;;4.85;2.78;;;;;;;17.86;100.00;100557.38;4972294;28;20147;-67
2021/09/16 08:35:31;;;;;;;4.78;2.70;;;;;;;17.82;100.00;100553.91;4973376;28;20030;-70
2021/09/16 08:37:56;;;;;;;5.55;3.00;;;;;;;17.82;100.00;100555.88;4972291;28;20033;-67
2021/09/16 08:40:22;;;;;;;4.97;3.15;;;;;;;17.87;100.00;100561.63;4976149;28;20399;-68
2021/09/16 08:42:50;;;;;;;4.75;2.80;;;;;;;17.89;100.00;100556.56;4969734;28;20104;-69
2021/09/16 08:45:18;;;;;;;4.78;2.35;;;;;;;17.91;100.00;100556.94;4979928;28;20750;-69
2021/09/16 08:47:49;;;;;;;4.93;2.58;;;;;;;17.93;100.00;100568.19;4970202;28;20045;-69
2021/09/16 08:50:17;;;;;;;4.85;2.65;;;;;;;17.92;100.00;100560.44;4987988;28;20034;-69
2021/09/16 08:52:44;;;;;;;6.18;2.60;;;;;;;17.98;100.00;100559.56;4983196;28;20030;-69
2021/09/16 08:55:12;;;;;;;6.35;2.42;;;;;;;18.03;100.00;100556.41;4986944;28;20034;-69
2021/09/16 08:57:41;;;;;;;4.30;2.42;;;;;;;18.01;100.00;100556.03;4960339;28;20499;-69
2021/09/16 09:00:10;;;;;;;4.40;2.58;;;;;;;18.06;100.00;100549.34;4978524;28;20034;-68
2021/09/16 09:02:36;;;;;;;4.53;2.25;;;;;;;18.16;100.00;100553.91;4972037;28;20562;-68
2021/09/16 09:05:05;;;;;;;3.55;2.28;;;;;;;18.24;100.00;100549.13;4982805;28;20042;-68
2021/09/16 09:07:38;;;;;;;4.35;2.80;;;;;;;18.29;100.00;100551.41;4984360;28;20038;-69
2021/09/16 09:10:04;;;;;;;4.55;2.22;;;;;;;18.31;100.00;100544.34;4987440;28;20022;-68
2021/09/16 09:12:34;;;;;;;4.90;2.42;;;;;;;18.37;100.00;100555.59;4989735;28;20498;-68
2021/09/16 09:15:00;;;;;;;2.80;2.10;;;;;;;18.38;100.00;100547.00;4987672;28;21330;-68
2021/09/16 09:17:30;;;;;;;4.90;2.20;;;;;;;18.46;100.00;100553.94;4957391;28;20030;-68
2021/09/16 09:19:58;;;;;;;2.88;1.60;;;;;;;18.49;100.00;100547.66;4976807;28;20106;-69
2021/09/16 09:22:33;;;;;;;3.78;1.88;;;;;;;18.53;100.00;100548.38;4989845;28;20109;-68
2021/09/16 09:25:05;;;;;;;3.00;2.05;;;;;;;18.53;100.00;100551.13;4982430;28;20085;-68
2021/09/16 09:27:38;;;;;;;2.17;1.80;;;;;;;18.57;100.00;100540.94;4984769;28;20031;-69
2021/09/16 09:30:19;;;;;;;4.15;1.95;;;;;;;18.65;100.00;100547.81;4985232;28;20026;-69
2021/09/16 09:33:00;;;;;;;3.45;1.55;;;;;;;18.73;100.00;100541.09;4985368;28;20043;-69
2021/09/16 09:35:33;;;;;;;4.13;1.52;;;;;;;18.85;100.00;100547.94;4981526;28;20047;-69
2021/09/16 09:38:21;;;;;;;2.70;1.58;;;;;;;18.90;100.00;100556.41;4975744;28;20058;-69
2021/09/16 09:40:52;;;;;;;3.08;1.70;;;;;;;18.98;100.00;100548.91;4968545;28;20061;-69
2021/09/16 09:43:36;;;;;;;4.13;1.77;;;;;;;18.89;100.00;100546.66;4972773;28;20056;-69
2021/09/16 09:46:07;;;;;;;2.75;1.80;;;;;;;18.93;100.00;100549.34;4990817;28;20037;-69
2021/09/16 09:48:45;;;;;;;2.13;1.40;;;;;;;18.93;100.00;100554.81;4991849;28;20038;-68
2021/09/16 09:51:13;;;;;;;2.17;1.20;;;;;;;18.88;100.00;100555.28;4993274;28;20045;-68
2021/09/16 09:53:45;;;;;;;2.58;1.20;;;;;;;18.85;100.00;100556.88;4991274;28;20121;-69
2021/09/16 09:56:20;;;;;;;1.92;1.00;;;;;;;18.95;100.00;100565.34;4976106;28;20041;-69
2021/09/16 09:58:46;;;;;;;1.30;1.10;;;;;;;18.88;100.00;100564.25;4991009;28;20072;-68
2021/09/16 10:01:29;;;;;;;1.48;0.80;;;;;;;18.83;100.00;100561.22;4992999;28;20038;-69
2021/09/16 10:03:54;;;;;;;0.80;0.80;;;;;;;18.89;100.00;100557.59;4974378;28;20061;-69
2021/09/16 10:06:20;;;;;;;1.58;0.95;;;;;;;19.09;100.00;100560.41;4978679;28;20089;-69
2021/09/16 10:09:10;;;;;;;2.97;0.90;;;;;;;19.15;100.00;100555.25;4992690;28;20034;-69
2021/09/16 10:11:47;;;;;;;4.43;0.82;;;;;;;19.30;100.00;100559.31;4974371;28;20511;-68
2021/09/16 10:14:13;;;;;;;3.40;1.35;;;;;;;19.37;100.00;100570.13;4972559;28;20061;-69
2021/09/16 10:16:40;;;;;;;1.90;0.75;;;;;;;19.41;100.00;100557.97;4985602;28;20030;-69
2021/09/16 10:19:05;;;;;;;3.28;1.20;;;;;;;19.42;99.99;100554.03;4992292;28;20030;-69
2021/09/16 10:21:32;;;;;;;1.23;0.75;;;;;;;19.43;100.00;100550.13;4991479;28;20503;-69
2021/09/16 10:24:00;;;;;;;5.18;1.10;;;;;;;19.41;100.00;100551.72;4990724;28;20043;-70
2021/09/16 10:26:50;;;;;;;0.98;0.70;;;;;;;19.49;99.06;100550.41;4981443;28;20506;-69
2021/09/16 10:29:27;;;;;;;1.40;1.00;;;;;;;19.53;99.27;100551.13;4991333;28;20054;-69
2021/09/16 10:32:13;;;;;;;1.45;0.95;;;;;;;19.55;99.65;100546.75;4988428;28;20403;-69
2021/09/16 10:34:44;;;;;;;1.98;0.90;;;;;;;19.66;98.55;100555.56;4981509;28;20049;-69
2021/09/16 10:37:34;;;;;;;6.18;1.00;;;;;;;19.59;98.13;100552.94;4973258;28;20031;-69
2021/09/16 10:40:00;;;;;;;1.67;1.10;;;;;;;19.64;98.64;100554.44;4974817;28;20392;-69
2021/09/16 10:42:52;;;;;;;1.98;1.13;;;;;;;19.60;98.99;100553.72;4991167;28;20061;-69
2021/09/16 10:45:41;;;;;;;2.35;1.00;;;;;;;19.63;98.16;100556.38;4989877;28;20030;-69
2021/09/16 10:48:13;;;;;;;1.80;1.15;;;;;;;19.58;99.19;100556.88;4971464;28;20034;-69
2021/09/16 10:50:47;;;;;;;2.00;1.13;;;;;;;19.62;99.50;100551.34;4984655;28;20372;-69
2021/09/16 10:53:31;;;;;;;2.00;0.93;;;;;;;19.58;98.61;100554.16;4987094;28;20499;-69
2021/09/16 10:55:57;;;;;;;2.67;1.10;;;;;;;19.64;98.32;100548.97;4982743;28;20038;-69
2021/09/16 10:58:27;;;;;;;2.08;1.10;;;;;;;19.58;99.02;100553.38;4985525;28;20026;-69
2021/09/16 11:00:52;;;;;;;2.90;1.00;;;;;;;19.61;99.34;100553.28;4984396;28;20122;-69
2021/09/16 11:03:18;;;;;;;0.80;0.63;;;;;;;19.57;100.00;100549.84;4979230;28;20121;-69
2021/09/16 11:05:50;;;;;;;1.88;1.10;;;;;;;19.58;100.00;100554.16;4974317;28;20034;-69
2021/09/16 11:08:17;;;;;;;1.58;1.00;;;;;;;19.61;99.84;100553.28;4988903;28;20068;-70
2021/09/16 11:10:43;;;;;;;2.15;1.10;;;;;;;19.58;100.00;100554.16;4969656;28;20058;-68
2021/09/16 11:13:38;;;;;;;2.33;1.00;;;;;;;19.62;98.67;100563.06;4985640;28;20065;-67
2021/09/16 11:16:04;;;;;;;0.70;0.60;;;;;;;19.62;97.04;100565.00;4984075;28;20042;-68
2021/09/16 11:18:30;;;;;;;0.98;0.50;;;;;;;19.66;95.92;100563.75;4990567;28;20018;-69